Fontanelle, Nebraska
Current Conditions -  °F | °C
As of 3:35 AM on Friday 28 Nov 2014 (Local Time) from KFET Reporting Station
Clear Clear  
Wind Chill: 18°   Ceiling: Unl
Heat Index: 28°   Visibility: 10mi
Dew Point: 22°   Wind: 12mph
Humidity: 78%   Direction: 160°SSE
Pressure: 29.96"   Gusts: 16mph
Location:  41.5221°N, 96.4999°W
Report Text: KFET 280935Z AUTO 16010G14KT 10SM CLR M02/M05 A2996 RMK AO2 T10211055
Loading
Personal Weather Stations






























Interactive Weather Map New forecast layout! Learn more

10-Day Weather Forecast

Advertisements
Track Severe Weather on mobile